Time;durP1;ratioP1;P1;durP2;ratioP2;P2;SDS_P1;SDS_P2;PMS_P1;PMS_P2;Temp;Humidity;BMP_temperature;BMP_pressure;BME280_temperature;BME280_humidity;BME280_pressure;Samples;Min_cycle;Max_cycle;Signal;HPM_P1;HPM_P2
2023/06/24 00:02:05;;;;;;;5.45;2.42;;;21.80;63.30;;;;;;4768860;30;20056;-96
2023/06/24 00:04:33;;;;;;;5.03;2.30;;;21.60;63.10;;;;;;4739519;30;20056;-95
2023/06/24 00:07:02;;;;;;;4.32;2.30;;;21.60;63.10;;;;;;4751981;30;20052;-96
2023/06/24 00:09:30;;;;;;;6.43;2.50;;;21.50;63.40;;;;;;4750774;30;20048;-96
2023/06/24 00:11:58;;;;;;;4.97;2.17;;;21.50;62.80;;;;;;4750035;30;20048;-95
2023/06/24 00:14:27;;;;;;;5.85;2.28;;;21.50;63.00;;;;;;4766133;30;20063;-96
2023/06/24 00:16:56;;;;;;;4.40;2.50;;;21.50;63.60;;;;;;4751044;30;20139;-95
2023/06/24 00:19:26;;;;;;;4.25;2.05;;;21.60;63.50;;;;;;4752332;30;20052;-96
2023/06/24 00:21:56;;;;;;;5.22;2.70;;;21.60;63.30;;;;;;4751410;30;20079;-96
2023/06/24 00:24:25;;;;;;;3.92;2.08;;;21.50;62.90;;;;;;4765510;30;20083;-95
2023/06/24 00:26:53;;;;;;;3.85;2.33;;;21.50;63.00;;;;;;4749752;30;20594;-96
2023/06/24 00:29:21;;;;;;;4.73;2.10;;;21.50;63.20;;;;;;4751569;30;20507;-96
2023/06/24 00:31:49;;;;;;;6.13;2.50;;;21.50;63.20;;;;;;4765685;30;20087;-95
2023/06/24 00:34:20;;;;;;;3.80;2.15;;;21.50;63.20;;;;;;4751948;30;20055;-96
2023/06/24 00:36:51;;;;;;;5.68;2.50;;;21.50;63.10;;;;;;4741322;30;20053;-96
2023/06/24 00:39:22;;;;;;;5.32;2.35;;;21.50;63.90;;;;;;4769626;30;20048;-96
2023/06/24 00:41:50;;;;;;;4.83;2.57;;;21.50;63.40;;;;;;4769050;30;20056;-96
2023/06/24 00:44:19;;;;;;;4.18;2.20;;;21.50;63.40;;;;;;4765176;30;20146;-96
2023/06/24 00:46:47;;;;;;;6.85;2.47;;;21.50;63.60;;;;;;4764314;30;20056;-95
2023/06/24 00:49:16;;;;;;;4.80;2.60;;;21.50;63.80;;;;;;4747608;30;20500;-96
2023/06/24 00:51:50;;;;;;;6.15;2.50;;;21.50;63.40;;;;;;4766565;30;20147;-96
2023/06/24 00:54:19;;;;;;;4.53;2.47;;;21.50;63.40;;;;;;4751653;30;20052;-95
2023/06/24 00:56:48;;;;;;;5.60;2.47;;;21.50;63.60;;;;;;4765278;30;20052;-96
2023/06/24 00:59:18;;;;;;;5.47;2.92;;;21.50;63.80;;;;;;4751243;30;20056;-96
2023/06/24 01:01:47;;;;;;;4.32;2.40;;;21.50;64.30;;;;;;4751612;30;20052;-96
2023/06/24 01:04:16;;;;;;;6.85;2.83;;;21.50;64.50;;;;;;4753542;30;20052;-96
2023/06/24 01:06:45;;;;;;;5.67;2.30;;;21.50;63.80;;;;;;4756281;30;20111;-96
2023/06/24 01:09:15;;;;;;;4.40;2.33;;;21.50;64.20;;;;;;4754883;30;20056;-96
2023/06/24 01:11:45;;;;;;;5.80;2.47;;;21.50;63.70;;;;;;4753852;30;20106;-95
2023/06/24 01:14:13;;;;;;;5.07;2.20;;;21.30;64.10;;;;;;4754279;30;20055;-96
2023/06/24 01:17:05;;;;;;;5.03;2.67;;;21.30;64.00;;;;;;4756499;30;20063;-96
2023/06/24 01:19:50;;;;;;;6.63;2.77;;;21.30;64.00;;;;;;4769846;30;20052;-96
2023/06/24 01:22:29;;;;;;;5.15;2.60;;;21.20;64.60;;;;;;4766095;30;20056;-96
2023/06/24 01:25:13;;;;;;;5.63;2.65;;;21.30;64.70;;;;;;4748594;30;20054;-96
2023/06/24 01:28:20;;;;;;;4.25;2.60;;;21.30;64.20;;;;;;4750250;30;20052;-95
2023/06/24 01:31:35;;;;;;;4.35;2.17;;;21.30;64.10;;;;;;4752025;30;20078;-96
2023/06/24 01:34:18;;;;;;;4.53;2.37;;;21.30;64.10;;;;;;4727795;30;20049;-95
2023/06/24 01:36:57;;;;;;;5.10;2.33;;;21.30;64.20;;;;;;4716505;30;20060;-95
2023/06/24 01:39:27;;;;;;;4.82;1.95;;;21.30;64.00;;;;;;4746976;30;20058;-95
2023/06/24 01:42:02;;;;;;;5.45;2.42;;;21.30;64.10;;;;;;4753401;30;20048;-95
2023/06/24 01:44:35;;;;;;;4.88;2.38;;;21.20;64.20;;;;;;4739920;30;20052;-95
2023/06/24 01:47:09;;;;;;;4.83;2.57;;;21.20;64.40;;;;;;4754262;30;20052;-96
2023/06/24 01:49:43;;;;;;;6.05;2.72;;;21.10;64.30;;;;;;4754452;30;20059;-95
2023/06/24 01:52:17;;;;;;;6.47;2.80;;;21.00;64.70;;;;;;4754350;30;20052;-95
2023/06/24 01:54:49;;;;;;;4.38;2.22;;;21.00;64.90;;;;;;4767403;30;20052;-95
2023/06/24 01:57:18;;;;;;;5.20;2.63;;;21.10;65.00;;;;;;4752642;30;20127;-94
2023/06/24 01:59:48;;;;;;;5.00;2.60;;;21.10;64.90;;;;;;4767139;30;20059;-95
2023/06/24 02:02:20;;;;;;;5.38;2.58;;;21.10;64.90;;;;;;4766025;30;20052;-95
2023/06/24 02:04:51;;;;;;;4.28;2.65;;;21.00;65.10;;;;;;4765986;30;20094;-96
2023/06/24 02:07:21;;;;;;;4.53;2.58;;;20.90;65.30;;;;;;4750826;30;20086;-95
2023/06/24 02:10:07;;;;;;;4.82;2.70;;;21.00;65.20;;;;;;4754571;30;20056;-96
2023/06/24 02:12:38;;;;;;;5.17;2.70;;;21.00;65.50;;;;;;4768206;30;20475;-96
2023/06/24 02:15:10;;;;;;;4.93;2.80;;;21.00;65.30;;;;;;4754147;30;20080;-96
2023/06/24 02:17:48;;;;;;;4.78;2.78;;;20.90;65.50;;;;;;4768510;30;20049;-96
2023/06/24 02:20:27;;;;;;;5.70;2.80;;;20.80;65.90;;;;;;4752344;30;20048;-95
2023/06/24 02:22:58;;;;;;;7.28;2.30;;;20.70;66.20;;;;;;4739774;30;20063;-96
2023/06/24 02:25:27;;;;;;;6.03;2.70;;;20.60;66.60;;;;;;4753820;30;20133;-95
2023/06/24 02:27:58;;;;;;;6.03;2.78;;;20.50;66.50;;;;;;4768513;30;20048;-95
2023/06/24 02:30:29;;;;;;;8.05;2.85;;;20.50;66.90;;;;;;4767980;30;20128;-94
2023/06/24 02:32:57;;;;;;;6.45;3.00;;;20.40;67.00;;;;;;4769127;30;20083;-96
2023/06/24 02:35:25;;;;;;;4.88;2.70;;;20.40;67.40;;;;;;4768489;30;20116;-96
2023/06/24 02:37:55;;;;;;;6.20;2.80;;;20.40;67.40;;;;;;4765261;30;20059;-95
2023/06/24 02:40:24;;;;;;;5.85;2.80;;;20.50;67.60;;;;;;4766097;30;20052;-95
2023/06/24 02:42:52;;;;;;;6.43;3.40;;;20.50;67.60;;;;;;4765784;30;20052;-96
2023/06/24 02:45:23;;;;;;;6.43;2.28;;;20.50;67.30;;;;;;4764556;30;20055;-95
2023/06/24 02:47:52;;;;;;;5.45;2.83;;;20.50;67.10;;;;;;4749864;30;20063;-96
2023/06/24 02:50:22;;;;;;;7.63;2.83;;;20.50;67.20;;;;;;4749828;30;20048;-96
2023/06/24 02:52:52;;;;;;;4.90;2.30;;;20.50;67.60;;;;;;4749192;30;20507;-94
2023/06/24 02:55:23;;;;;;;5.65;2.80;;;20.40;67.80;;;;;;4748445;30;20072;-95
2023/06/24 02:57:59;;;;;;;6.18;2.45;;;20.30;68.10;;;;;;4748764;30;20052;-95
2023/06/24 03:00:53;;;;;;;4.85;2.35;;;20.30;68.40;;;;;;4762208;30;20079;-96
2023/06/24 03:03:43;;;;;;;7.70;2.70;;;20.30;68.50;;;;;;4750337;30;20052;-96
2023/06/24 03:06:17;;;;;;;4.75;2.53;;;20.20;68.10;;;;;;4748825;30;20411;-95
2023/06/24 03:08:49;;;;;;;4.80;2.65;;;20.20;68.30;;;;;;4743876;30;20056;-95
2023/06/24 03:11:20;;;;;;;5.90;3.00;;;20.20;68.60;;;;;;4746361;30;20048;-96
2023/06/24 03:13:48;;;;;;;5.90;2.55;;;20.30;68.20;;;;;;4744860;30;20054;-96
2023/06/24 03:16:26;;;;;;;5.30;2.60;;;20.40;68.40;;;;;;4743497;30;20060;-95
2023/06/24 03:18:58;;;;;;;4.68;2.67;;;20.30;68.20;;;;;;4741906;30;20538;-96
2023/06/24 03:21:28;;;;;;;6.28;2.88;;;20.30;68.20;;;;;;4758266;30;20062;-96
2023/06/24 03:24:05;;;;;;;6.85;2.90;;;20.30;68.40;;;;;;4757477;30;20143;-96
2023/06/24 03:26:35;;;;;;;6.57;2.88;;;20.20;68.50;;;;;;4741321;30;20056;-95
2023/06/24 03:29:05;;;;;;;5.13;2.60;;;20.20;68.60;;;;;;4755859;30;20048;-95
2023/06/24 03:31:33;;;;;;;4.60;2.50;;;20.20;68.60;;;;;;4755684;30;20063;-95
2023/06/24 03:34:00;;;;;;;6.07;3.10;;;20.20;68.70;;;;;;4743384;30;20079;-96
2023/06/24 03:36:28;;;;;;;7.05;2.40;;;20.30;68.50;;;;;;4757375;30;20086;-95
2023/06/24 03:38:56;;;;;;;6.25;2.75;;;20.30;68.50;;;;;;4757853;30;20119;-96
2023/06/24 03:41:26;;;;;;;5.97;2.97;;;20.40;68.60;;;;;;4757389;30;20087;-95
2023/06/24 03:43:53;;;;;;;5.85;2.78;;;20.40;68.30;;;;;;4728970;30;20136;-95
2023/06/24 03:46:21;;;;;;;6.57;2.97;;;20.50;68.40;;;;;;4743925;30;20508;-96
2023/06/24 03:48:53;;;;;;;7.68;2.83;;;20.50;68.10;;;;;;4751304;30;20116;-96
2023/06/24 03:51:21;;;;;;;6.53;2.97;;;20.50;68.40;;;;;;4751699;30;20127;-95
2023/06/24 03:53:54;;;;;;;7.70;3.17;;;20.50;68.30;;;;;;4767147;30;20052;-95
2023/06/24 03:56:24;;;;;;;6.90;2.80;;;20.50;68.50;;;;;;4750914;30;20056;-96
2023/06/24 03:58:52;;;;;;;6.43;2.63;;;20.60;68.50;;;;;;4752302;30;20056;-95
2023/06/24 04:01:21;;;;;;;5.75;2.80;;;20.60;68.50;;;;;;4753839;30;20052;-96
2023/06/24 04:03:49;;;;;;;6.85;2.90;;;20.60;68.40;;;;;;4750628;30;20071;-95
2023/06/24 04:06:17;;;;;;;4.83;2.53;;;20.60;68.50;;;;;;4735757;30;20048;-95
2023/06/24 04:08:48;;;;;;;5.53;2.88;;;20.60;68.50;;;;;;4764732;30;20119;-95
2023/06/24 04:11:16;;;;;;;5.75;2.85;;;20.60;68.60;;;;;;4765847;30;20056;-95
2023/06/24 04:13:45;;;;;;;6.20;3.20;;;20.60;68.60;;;;;;4765396;30;20569;-96
2023/06/24 04:16:13;;;;;;;7.15;3.03;;;20.60;68.30;;;;;;4750644;30;20205;-95
2023/06/24 04:18:41;;;;;;;5.40;2.60;;;20.60;68.30;;;;;;4766743;30;20144;-95
2023/06/24 04:21:09;;;;;;;6.57;3.17;;;20.70;68.40;;;;;;4750812;30;20052;-95
2023/06/24 04:23:37;;;;;;;6.25;3.00;;;20.70;68.00;;;;;;4745474;30;20420;-96
2023/06/24 04:26:05;;;;;;;5.63;3.13;;;20.80;68.20;;;;;;4747440;30;20044;-96
2023/06/24 04:28:32;;;;;;;6.63;2.60;;;20.60;68.10;;;;;;4761608;30;20052;-96
2023/06/24 04:31:00;;;;;;;7.63;3.30;;;20.60;68.30;;;;;;4761041;30;20048;-96
2023/06/24 04:33:28;;;;;;;5.32;2.40;;;20.60;68.60;;;;;;4759683;30;20107;-96
2023/06/24 04:35:56;;;;;;;5.65;2.88;;;20.60;68.60;;;;;;4759306;30;20052;-96
2023/06/24 04:38:24;;;;;;;6.50;2.58;;;20.60;68.60;;;;;;4757177;30;20077;-95
2023/06/24 04:40:52;;;;;;;6.22;3.10;;;20.60;68.40;;;;;;4757276;30;20059;-96
2023/06/24 04:43:21;;;;;;;6.10;2.87;;;20.60;68.70;;;;;;4742075;30;20052;-95
2023/06/24 04:45:49;;;;;;;9.88;3.10;;;20.60;68.60;;;;;;4755199;30;20062;-96
2023/06/24 04:48:16;;;;;;;5.38;3.08;;;20.70;68.70;;;;;;4755107;30;20148;-96
2023/06/24 04:50:43;;;;;;;5.28;2.83;;;20.70;68.80;;;;;;4754981;30;20060;-96
2023/06/24 04:53:11;;;;;;;5.35;2.83;;;20.60;68.90;;;;;;4755455;30;20056;-96
2023/06/24 04:55:38;;;;;;;6.93;3.33;;;20.60;69.00;;;;;;4741213;30;20056;-96
2023/06/24 04:58:06;;;;;;;7.43;3.35;;;20.60;68.70;;;;;;4755564;30;20052;-95
2023/06/24 05:00:33;;;;;;;8.20;2.50;;;20.60;69.10;;;;;;4758920;30;20056;-95
2023/06/24 05:03:01;;;;;;;9.27;3.28;;;20.60;69.50;;;;;;4761387;30;20059;-95
2023/06/24 05:05:32;;;;;;;5.43;2.85;;;20.60;69.40;;;;;;4762383;30;20522;-95
2023/06/24 05:08:04;;;;;;;5.77;2.73;;;20.60;69.60;;;;;;4764625;30;20512;-96
2023/06/24 05:10:32;;;;;;;5.97;2.85;;;20.60;69.90;;;;;;4766957;30;20084;-96
2023/06/24 05:13:00;;;;;;;6.68;3.28;;;20.60;69.90;;;;;;4750867;30;20053;-96
2023/06/24 05:15:27;;;;;;;5.95;3.08;;;20.60;70.20;;;;;;4749839;30;20111;-95
2023/06/24 05:17:56;;;;;;;6.65;2.80;;;20.60;70.60;;;;;;4766089;30;20056;-96
2023/06/24 05:20:37;;;;;;;24.97;4.90;;;20.70;70.30;;;;;;4738813;30;20066;-96
2023/06/24 05:23:10;;;;;;;11.57;4.72;;;20.70;70.50;;;;;;4766788;30;20060;-96
2023/06/24 05:25:42;;;;;;;8.48;4.43;;;20.60;70.80;;;;;;4768762;30;20056;-95
2023/06/24 05:28:17;;;;;;;12.05;4.95;;;20.50;71.50;;;;;;4767159;30;20048;-95
2023/06/24 05:30:46;;;;;;;12.48;5.00;;;20.30;72.50;;;;;;4750349;30;20405;-96
2023/06/24 05:33:14;;;;;;;12.50;6.10;;;20.20;73.20;;;;;;4760212;30;20540;-96
2023/06/24 05:35:44;;;;;;;13.63;6.45;;;20.20;73.70;;;;;;4746374;30;20056;-95
2023/06/24 05:38:12;;;;;;;20.13;7.97;;;20.10;74.10;;;;;;4745282;30;20063;-96
2023/06/24 05:40:40;;;;;;;18.65;8.30;;;20.10;74.50;;;;;;4759650;30;20068;-96
2023/06/24 05:43:08;;;;;;;21.20;9.07;;;20.00;75.10;;;;;;4735522;30;20082;-95
2023/06/24 05:45:36;;;;;;;18.60;8.53;;;20.00;75.70;;;;;;4752198;30;20419;-96
2023/06/24 05:48:04;;;;;;;20.58;9.13;;;19.80;76.40;;;;;;4732269;30;20120;-95
2023/06/24 05:50:32;;;;;;;21.15;10.35;;;19.80;76.60;;;;;;4746259;30;20060;-96
2023/06/24 05:52:59;;;;;;;21.85;9.90;;;19.80;77.30;;;;;;4756578;30;20052;-95
2023/06/24 05:55:26;;;;;;;21.85;10.43;;;19.80;78.10;;;;;;4744137;30;20048;-95
2023/06/24 05:57:54;;;;;;;19.37;9.87;;;19.70;78.50;;;;;;4746526;30;20060;-96
2023/06/24 06:00:22;;;;;;;22.10;10.10;;;19.60;78.70;;;;;;4747004;30;20056;-94
2023/06/24 06:02:49;;;;;;;17.38;10.18;;;19.70;79.00;;;;;;4744228;30;20094;-95
2023/06/24 06:05:17;;;;;;;21.10;10.05;;;19.70;79.00;;;;;;4759116;30;20067;-94
2023/06/24 06:07:44;;;;;;;20.70;10.50;;;19.70;79.10;;;;;;4728222;30;20068;-94
2023/06/24 06:10:15;;;;;;;17.17;9.20;;;19.70;79.20;;;;;;4763911;30;20111;-95
2023/06/24 06:12:48;;;;;;;18.73;9.18;;;19.80;79.20;;;;;;4760931;30;20071;-95
2023/06/24 06:15:15;;;;;;;19.60;9.65;;;19.80;79.20;;;;;;4757475;30;20084;-94
2023/06/24 06:17:42;;;;;;;17.02;9.13;;;19.80;79.20;;;;;;4758134;30;20060;-93
2023/06/24 06:20:10;;;;;;;17.38;8.80;;;19.70;79.40;;;;;;4743989;30;20060;-94
2023/06/24 06:22:38;;;;;;;21.27;9.97;;;19.80;79.70;;;;;;4741484;30;20151;-95
2023/06/24 06:25:06;;;;;;;17.00;9.10;;;19.80;79.60;;;;;;4759384;30;20080;-94
2023/06/24 06:27:34;;;;;;;19.80;9.38;;;19.70;79.70;;;;;;4764716;30;20132;-95
2023/06/24 06:30:03;;;;;;;17.58;9.10;;;19.50;80.30;;;;;;4746386;30;20056;-95
2023/06/24 06:32:30;;;;;;;18.42;9.52;;;19.60;80.70;;;;;;4745431;30;20056;-96
2023/06/24 06:34:59;;;;;;;17.33;9.30;;;19.50;80.80;;;;;;4763775;30;20082;-96
2023/06/24 06:37:30;;;;;;;19.35;8.65;;;19.40;81.20;;;;;;4762105;30;20056;-95
2023/06/24 06:39:58;;;;;;;16.65;8.68;;;19.40;81.60;;;;;;4755594;30;20578;-94
2023/06/24 06:42:25;;;;;;;13.52;6.68;;;19.40;81.90;;;;;;4756273;30;20473;-95
2023/06/24 06:44:53;;;;;;;13.55;8.00;;;19.30;81.80;;;;;;4741097;30;20082;-95
2023/06/24 06:47:20;;;;;;;13.77;7.40;;;19.30;82.10;;;;;;4753825;30;20060;-94
2023/06/24 06:49:47;;;;;;;11.55;7.10;;;19.40;82.10;;;;;;4753186;30;20052;-95
2023/06/24 06:52:15;;;;;;;11.98;6.68;;;19.40;82.20;;;;;;4739744;30;20147;-94
2023/06/24 06:54:44;;;;;;;12.20;6.05;;;19.50;81.90;;;;;;4752918;30;20051;-96
2023/06/24 06:57:11;;;;;;;10.43;5.72;;;19.50;81.30;;;;;;4741190;30;20055;-94
2023/06/24 06:59:38;;;;;;;10.53;5.33;;;19.50;81.50;;;;;;4752795;30;20121;-95
2023/06/24 07:02:06;;;;;;;9.90;5.68;;;19.50;81.30;;;;;;4753892;30;20147;-95
2023/06/24 07:04:33;;;;;;;12.23;6.80;;;19.40;81.20;;;;;;4756321;30;20574;-96
2023/06/24 07:07:01;;;;;;;11.55;7.13;;;19.40;81.70;;;;;;4753610;30;20056;-96
2023/06/24 07:09:28;;;;;;;12.82;7.00;;;19.30;82.00;;;;;;4753104;30;20048;-94
2023/06/24 07:11:55;;;;;;;11.63;7.67;;;19.40;81.40;;;;;;4754265;30;20462;-94
2023/06/24 07:14:22;;;;;;;14.95;9.63;;;19.40;81.80;;;;;;4756911;30;20045;-95
2023/06/24 07:16:50;;;;;;;17.00;11.32;;;19.40;81.50;;;;;;4754045;30;20083;-94
2023/06/24 07:19:17;;;;;;;18.17;11.45;;;19.30;81.60;;;;;;4752347;30;20060;-93
2023/06/24 07:21:44;;;;;;;17.42;11.68;;;19.30;81.60;;;;;;4738000;30;20079;-94
2023/06/24 07:24:11;;;;;;;19.97;12.70;;;19.20;82.00;;;;;;4741832;30;20063;-94
2023/06/24 07:26:38;;;;;;;21.70;14.52;;;19.40;82.10;;;;;;4758180;30;20086;-93
2023/06/24 07:29:07;;;;;;;21.58;14.55;;;19.40;81.40;;;;;;4729497;30;20044;-93
2023/06/24 07:31:36;;;;;;;19.33;13.18;;;19.40;81.80;;;;;;4728159;30;20143;-95
2023/06/24 07:34:05;;;;;;;19.48;13.30;;;19.30;81.50;;;;;;4756671;30;20048;-94
2023/06/24 07:36:32;;;;;;;20.07;12.30;;;19.20;81.60;;;;;;4756101;30;20416;-94
2023/06/24 07:43:00;;;;;;;19.40;13.32;;;19.10;81.80;;;;;;4758367;30;20051;-94
2023/06/24 07:45:27;;;;;;;17.25;12.05;;;19.20;82.50;;;;;;4740819;30;20392;-95
2023/06/24 07:47:54;;;;;;;18.92;13.05;;;19.30;82.20;;;;;;4755835;30;20075;-93
2023/06/24 07:50:22;;;;;;;20.93;12.40;;;19.30;81.80;;;;;;4755610;30;20048;-94
2023/06/24 07:52:49;;;;;;;16.98;11.65;;;19.50;81.80;;;;;;4755300;30;20060;-94
2023/06/24 07:55:16;;;;;;;18.13;11.70;;;19.60;81.20;;;;;;4740476;30;20044;-93
2023/06/24 07:57:46;;;;;;;16.42;11.45;;;19.70;81.10;;;;;;4755012;30;20461;-95
2023/06/24 08:00:15;;;;;;;18.75;11.30;;;19.70;80.80;;;;;;4740999;30;20068;-94
2023/06/24 08:02:45;;;;;;;14.47;10.43;;;19.70;80.80;;;;;;4739440;30;20056;-93
2023/06/24 08:05:13;;;;;;;16.23;10.82;;;19.80;81.00;;;;;;4758367;30;20056;-94
2023/06/24 08:07:40;;;;;;;16.90;10.90;;;19.80;79.90;;;;;;4757505;30;20063;-93
2023/06/24 08:10:07;;;;;;;17.02;11.70;;;19.70;80.10;;;;;;4758094;30;20044;-93
2023/06/24 08:12:35;;;;;;;16.05;10.55;;;19.80;80.10;;;;;;4758091;30;20055;-92
2023/06/24 08:15:02;;;;;;;19.83;11.40;;;19.80;80.50;;;;;;4757732;30;20595;-92
2023/06/24 08:17:33;;;;;;;16.42;11.15;;;19.70;79.80;;;;;;4738050;30;20114;-92
2023/06/24 08:20:01;;;;;;;17.13;11.23;;;19.80;80.10;;;;;;4722445;30;20094;-94
2023/06/24 08:22:28;;;;;;;16.60;10.93;;;19.80;79.70;;;;;;4737165;30;20112;-94
2023/06/24 08:24:56;;;;;;;17.85;12.57;;;19.90;79.30;;;;;;4737385;30;20148;-93
2023/06/24 08:27:23;;;;;;;17.13;12.07;;;19.90;79.20;;;;;;4722375;30;20049;-92
2023/06/24 08:29:50;;;;;;;17.48;11.23;;;19.90;79.40;;;;;;4722603;30;20083;-94
2023/06/24 08:32:17;;;;;;;16.70;12.05;;;19.90;79.00;;;;;;4736892;30;20053;-93
2023/06/24 08:34:44;;;;;;;18.27;11.70;;;19.90;78.90;;;;;;4736638;30;20075;-93
2023/06/24 08:37:11;;;;;;;17.45;12.82;;;19.80;79.10;;;;;;4736970;30;20052;-92
2023/06/24 08:39:38;;;;;;;18.43;12.50;;;19.60;79.40;;;;;;4736692;30;20057;-93
2023/06/24 08:42:05;;;;;;;20.65;12.00;;;19.60;80.10;;;;;;4736890;30;20048;-94
2023/06/24 08:44:32;;;;;;;17.85;12.45;;;19.50;79.60;;;;;;4736622;30;20061;-93
2023/06/24 08:47:00;;;;;;;16.40;11.95;;;19.50;79.60;;;;;;4736787;30;20148;-91
2023/06/24 08:49:32;;;;;;;17.38;11.85;;;19.40;79.60;;;;;;4736682;30;20056;-90
2023/06/24 08:52:07;;;;;;;16.03;12.20;;;19.40;80.00;;;;;;4736620;30;20083;-92
2023/06/24 08:54:36;;;;;;;16.92;11.88;;;19.20;79.50;;;;;;4736587;30;20189;-92
2023/06/24 08:57:06;;;;;;;17.50;12.57;;;19.10;80.10;;;;;;4736494;30;20056;-92
2023/06/24 08:59:34;;;;;;;17.40;12.35;;;19.10;80.20;;;;;;4736526;30;20511;-92
2023/06/24 09:02:01;;;;;;;16.95;12.85;;;19.10;80.80;;;;;;4736368;30;20084;-92
2023/06/24 09:04:29;;;;;;;20.70;15.20;;;19.10;80.60;;;;;;4736358;30;20155;-94
2023/06/24 09:06:59;;;;;;;25.80;16.70;;;19.00;80.50;;;;;;4721847;30;20051;-92
2023/06/24 09:09:32;;;;;;;22.20;16.25;;;18.90;80.80;;;;;;4740438;30;20128;-95
2023/06/24 09:12:12;;;;;;;25.40;17.42;;;18.90;80.80;;;;;;4731349;30;20424;-96
2023/06/24 09:14:50;;;;;;;24.70;16.20;;;18.80;80.40;;;;;;4737432;30;20049;-96
2023/06/24 09:17:34;;;;;;;24.37;16.80;;;18.60;80.50;;;;;;4737045;30;20075;-96
2023/06/24 09:20:11;;;;;;;24.60;16.20;;;18.60;80.60;;;;;;4752793;30;20059;-96
2023/06/24 09:27:13;;;;;;;20.83;14.20;;;18.70;80.00;;;;;;4741951;30;20040;-96
2023/06/24 09:29:41;;;;;;;22.73;15.30;;;18.60;79.90;;;;;;4738795;30;20052;-95
2023/06/24 09:32:09;;;;;;;22.80;14.70;;;18.60;80.10;;;;;;4745165;30;20059;-95
2023/06/24 09:34:40;;;;;;;23.90;15.82;;;18.60;80.20;;;;;;4727380;30;20083;-96
2023/06/24 09:37:10;;;;;;;24.92;16.02;;;18.50;80.20;;;;;;4739125;30;20044;-95
2023/06/24 09:39:40;;;;;;;31.13;20.25;;;18.50;80.50;;;;;;4722371;30;20052;-94
2023/06/24 09:42:07;;;;;;;30.08;21.27;;;18.50;80.30;;;;;;4736665;30;20092;-95
2023/06/24 09:44:35;;;;;;;38.23;26.17;;;18.30;80.60;;;;;;4723854;30;20060;-96
2023/06/24 09:47:07;;;;;;;40.42;26.80;;;18.30;80.90;;;;;;4732629;30;20095;-94
2023/06/24 09:49:39;;;;;;;43.30;29.70;;;18.30;80.90;;;;;;4726357;30;20087;-96
2023/06/24 09:52:07;;;;;;;43.30;30.10;;;18.30;81.00;;;;;;4740643;30;20086;-96
2023/06/24 09:54:36;;;;;;;40.90;28.17;;;18.30;80.50;;;;;;4723548;30;20460;-96
2023/06/24 09:57:09;;;;;;;37.63;24.27;;;18.50;80.80;;;;;;4722875;30;20056;-94
2023/06/24 09:59:41;;;;;;;31.88;21.20;;;18.40;80.20;;;;;;4737094;30;20056;-95
2023/06/24 10:02:12;;;;;;;27.70;20.52;;;18.30;80.10;;;;;;4735485;30;20393;-96
2023/06/24 10:04:40;;;;;;;26.17;18.02;;;18.30;80.60;;;;;;4736226;30;20087;-95
2023/06/24 10:07:07;;;;;;;27.52;18.05;;;18.30;80.00;;;;;;4736018;30;20093;-95
2023/06/24 10:09:35;;;;;;;27.33;16.77;;;18.30;80.40;;;;;;4736076;30;20064;-95
2023/06/24 10:12:05;;;;;;;25.23;16.00;;;18.30;80.70;;;;;;4747810;30;20053;-97
2023/06/24 10:14:33;;;;;;;25.45;16.13;;;18.30;80.40;;;;;;4736208;30;20056;-94
2023/06/24 10:17:04;;;;;;;24.38;15.90;;;18.20;80.70;;;;;;4735795;30;20051;-96
2023/06/24 10:19:39;;;;;;;24.92;15.50;;;18.20;81.00;;;;;;4726498;30;20052;-92
2023/06/24 10:22:13;;;;;;;25.93;14.83;;;18.20;81.00;;;;;;4751224;30;20055;-90
2023/06/24 10:24:42;;;;;;;24.35;15.63;;;18.30;80.80;;;;;;4760292;30;20052;-94
2023/06/24 10:27:15;;;;;;;21.48;15.15;;;18.30;80.20;;;;;;4765657;30;20097;-91
2023/06/24 10:48:06;;;;;;;21.63;14.15;;;18.50;79.60;;;;;;5824457;24;20052;31
2023/06/24 10:50:35;;;;;;;21.00;13.07;;;18.40;80.00;;;;;;4767041;30;20116;-95
2023/06/24 10:53:09;;;;;;;24.15;13.63;;;18.50;80.00;;;;;;4775458;30;20083;-96
2023/06/24 10:55:40;;;;;;;18.88;12.38;;;18.50;79.40;;;;;;4769900;30;20087;-96
2023/06/24 11:07:56;;;;;;;20.00;13.18;;;18.30;80.00;;;;;;4902919;24;20150;-94
2023/06/24 11:10:25;;;;;;;25.35;13.02;;;18.40;80.30;;;;;;4780020;30;20071;-96
2023/06/24 11:13:12;;;;;;;19.83;13.32;;;18.40;80.50;;;;;;4766691;30;20142;-96
2023/06/24 11:20:30;;;;;;;20.83;13.77;;;18.50;79.70;;;;;;4780700;29;20035;-92
2023/06/24 11:23:00;;;;;;;21.23;13.80;;;18.60;80.50;;;;;;4778002;30;20101;-95
2023/06/24 11:25:47;;;;;;;19.73;13.02;;;18.60;80.00;;;;;;4783052;30;20047;-95
2023/06/24 11:28:18;;;;;;;19.40;13.23;;;18.70;79.50;;;;;;4774965;30;20048;-96
2023/06/24 11:30:49;;;;;;;21.50;13.25;;;18.80;79.90;;;;;;4776263;30;20043;-95
2023/06/24 11:33:29;;;;;;;21.63;14.17;;;18.80;79.30;;;;;;4774050;30;20055;-96
2023/06/24 11:35:56;;;;;;;20.58;13.23;;;18.70;79.30;;;;;;4773312;30;20399;-95
2023/06/24 11:38:24;;;;;;;21.08;14.00;;;18.70;79.50;;;;;;4772850;30;20055;-95
2023/06/24 11:40:51;;;;;;;18.95;12.77;;;18.80;79.70;;;;;;4772896;30;20460;-94
2023/06/24 11:43:20;;;;;;;22.23;13.45;;;18.90;79.50;;;;;;4758287;30;20142;-95
2023/06/24 11:45:48;;;;;;;20.53;13.13;;;19.00;78.90;;;;;;4772646;30;20055;-95
2023/06/24 11:48:15;;;;;;;22.85;14.00;;;19.00;78.40;;;;;;4772749;30;20124;-95
2023/06/24 11:50:42;;;;;;;19.73;13.82;;;19.00;79.10;;;;;;4772774;30;20055;-96
2023/06/24 11:53:11;;;;;;;19.55;12.88;;;19.00;79.70;;;;;;4772743;30;20055;-96
2023/06/24 11:55:38;;;;;;;18.33;11.75;;;19.10;78.90;;;;;;4772507;30;20050;-95
2023/06/24 11:58:05;;;;;;;22.10;12.43;;;19.00;77.70;;;;;;4772569;30;20487;-95
2023/06/24 12:00:36;;;;;;;21.20;13.00;;;18.90;78.40;;;;;;4757931;30;20495;-94
2023/06/24 12:03:07;;;;;;;19.85;12.57;;;18.80;79.00;;;;;;4772512;30;20055;-95
2023/06/24 12:05:44;;;;;;;18.88;12.23;;;18.90;78.70;;;;;;4774050;30;20506;-95
2023/06/24 12:08:16;;;;;;;19.67;12.80;;;18.90;78.40;;;;;;4772906;30;20511;-95
2023/06/24 12:10:45;;;;;;;19.80;11.53;;;18.90;78.30;;;;;;4775981;30;20150;-95
2023/06/24 12:13:12;;;;;;;22.48;12.52;;;18.90;78.70;;;;;;4775557;30;20465;-95
2023/06/24 12:15:40;;;;;;;17.10;11.80;;;18.90;78.70;;;;;;4775678;30;20055;-95
2023/06/24 12:18:07;;;;;;;18.58;11.88;;;19.00;78.60;;;;;;4775608;30;20529;-95
2023/06/24 12:20:36;;;;;;;21.75;13.18;;;19.00;78.10;;;;;;4775385;30;20108;-96
2023/06/24 12:23:05;;;;;;;16.97;12.23;;;18.80;77.70;;;;;;4778268;30;20055;-94
2023/06/24 12:25:33;;;;;;;19.08;12.57;;;18.70;78.50;;;;;;4761030;30;20055;-95
2023/06/24 12:28:00;;;;;;;18.75;12.13;;;18.70;78.40;;;;;;4777270;30;20051;-96
2023/06/24 12:30:28;;;;;;;19.35;12.90;;;18.70;78.80;;;;;;4764033;30;20059;-96
2023/06/24 12:32:56;;;;;;;19.17;12.75;;;18.80;79.30;;;;;;4779930;30;20055;-95
2023/06/24 12:35:37;;;;;;;18.47;12.03;;;18.80;79.10;;;;;;4774115;30;20051;-96
2023/06/24 12:38:05;;;;;;;19.00;12.73;;;18.80;79.30;;;;;;4776051;30;20063;-96
2023/06/24 12:40:35;;;;;;;18.40;12.55;;;18.90;79.30;;;;;;4775960;30;20047;-96
2023/06/24 12:43:07;;;;;;;20.63;13.40;;;18.90;78.40;;;;;;4789374;30;20090;-96
2023/06/24 12:45:40;;;;;;;19.25;12.77;;;18.90;78.60;;;;;;4787096;30;20067;-96
2023/06/24 12:48:12;;;;;;;20.63;13.27;;;18.90;78.50;;;;;;4772533;30;20039;-96
2023/06/24 12:50:42;;;;;;;19.33;13.52;;;18.90;78.20;;;;;;4777200;30;20047;-94
2023/06/24 12:53:14;;;;;;;22.40;15.32;;;18.80;78.70;;;;;;4775434;30;20613;-94
2023/06/24 12:55:41;;;;;;;23.25;15.15;;;18.80;79.10;;;;;;4761411;30;20073;-94
2023/06/24 12:58:08;;;;;;;23.05;14.40;;;18.80;79.30;;;;;;4776116;30;20566;-96
2023/06/24 13:00:36;;;;;;;22.23;15.63;;;18.80;79.50;;;;;;4778336;30;20055;-96
2023/06/24 13:03:04;;;;;;;22.40;14.48;;;18.90;78.90;;;;;;4763990;30;20384;-96
2023/06/24 13:05:33;;;;;;;23.83;14.55;;;18.90;78.50;;;;;;4766622;30;20151;-95
2023/06/24 13:08:01;;;;;;;18.13;13.45;;;18.80;78.50;;;;;;4773133;30;20163;-95
2023/06/24 13:10:28;;;;;;;18.23;13.15;;;18.80;78.40;;;;;;4775147;30;20055;-94
2023/06/24 13:12:56;;;;;;;21.30;14.10;;;18.70;78.20;;;;;;4760290;30;20059;-95
2023/06/24 13:15:23;;;;;;;21.15;14.13;;;18.80;78.60;;;;;;4767549;30;20062;-94
2023/06/24 13:17:55;;;;;;;19.35;13.30;;;18.70;78.50;;;;;;4742914;30;20055;-96
2023/06/24 13:20:22;;;;;;;19.40;14.07;;;18.80;78.50;;;;;;4755991;30;20052;-93
2023/06/24 13:22:49;;;;;;;21.70;14.18;;;18.80;78.50;;;;;;4745425;30;20083;-92
2023/06/24 13:25:17;;;;;;;20.63;13.37;;;19.00;78.70;;;;;;4767003;30;20058;-94
2023/06/24 13:27:44;;;;;;;17.05;12.15;;;19.00;78.60;;;;;;4749506;30;20511;-93
2023/06/24 13:30:14;;;;;;;19.45;13.05;;;19.00;78.20;;;;;;4754154;30;20047;-93
2023/06/24 13:32:42;;;;;;;19.92;12.40;;;19.00;77.90;;;;;;4756233;30;20052;-93